Time;durP1;ratioP1;P1;durP2;ratioP2;P2;SDS_P1;SDS_P2;PMS_P1;PMS_P2;Temp;Humidity;BMP_temperature;BMP_pressure;BME280_temperature;BME280_humidity;BME280_pressure;Samples;Min_cycle;Max_cycle;Signal;HPM_P1;HPM_P2
2022/04/26 03:36:53;;;;;;;26.23;12.35;;;;;;;1.28;100.00;101153.03;5023442;28;20410;-75
2022/04/26 03:39:20;;;;;;;28.95;12.55;;;;;;;1.27;100.00;101159.25;5023667;28;20029;-75
2022/04/26 03:41:46;;;;;;;27.45;12.57;;;;;;;1.36;100.00;101182.38;5022251;28;20040;-75
2022/04/26 03:44:11;;;;;;;27.57;13.37;;;;;;;1.34;100.00;101196.56;5025397;28;20029;-75
2022/04/26 03:46:36;;;;;;;24.60;12.93;;;;;;;1.29;100.00;101191.56;5019677;28;20504;-75
2022/04/26 03:49:02;;;;;;;25.83;11.37;;;;;;;1.27;100.00;101189.03;5024991;28;20029;-75
2022/04/26 03:51:27;;;;;;;27.27;12.48;;;;;;;1.28;100.00;101181.97;5020613;28;20033;-75
2022/04/26 03:53:52;;;;;;;22.27;11.43;;;;;;;1.34;100.00;101183.41;5020650;28;20083;-75
2022/04/26 03:56:18;;;;;;;32.43;14.57;;;;;;;1.36;100.00;101189.41;5024871;28;20048;-75
2022/04/26 03:58:43;;;;;;;30.70;14.73;;;;;;;1.39;100.00;101187.44;5023721;28;20068;-75
2022/04/26 04:01:08;;;;;;;28.73;13.20;;;;;;;1.35;100.00;101192.97;5024507;28;20041;-75
2022/04/26 04:03:38;;;;;;;31.63;13.27;;;;;;;1.35;100.00;101192.97;5020601;28;20271;-74
2022/04/26 04:06:03;;;;;;;25.65;12.25;;;;;;;1.33;100.00;101192.22;5023677;28;20033;-75
2022/04/26 04:08:29;;;;;;;33.95;12.45;;;;;;;1.34;100.00;101176.34;5020353;28;20062;-75
2022/04/26 04:10:54;;;;;;;28.17;12.30;;;;;;;1.40;100.00;101180.38;5020753;28;20485;-75
2022/04/26 04:13:20;;;;;;;25.30;12.40;;;;;;;1.38;100.00;101179.63;5027807;28;20057;-75
2022/04/26 04:15:46;;;;;;;25.97;11.73;;;;;;;1.37;100.00;101177.97;5025860;28;20132;-74
2022/04/26 04:21:02;;;;;;;22.25;11.82;;;;;;;1.44;100.00;101174.84;4996653;28;20164;-75
2022/04/26 04:23:27;;;;;;;23.47;11.80;;;;;;;1.51;100.00;101174.50;5032737;28;20083;-75
2022/04/26 04:25:52;;;;;;;26.03;13.80;;;;;;;1.60;100.00;101174.78;5011066;28;20041;-75
2022/04/26 04:28:18;;;;;;;23.90;11.37;;;;;;;1.58;100.00;101175.81;5028836;28;20035;-75
2022/04/26 04:30:43;;;;;;;23.37;10.70;;;;;;;1.57;100.00;101174.97;5025299;28;20125;-75
2022/04/26 04:33:09;;;;;;;24.00;12.25;;;;;;;1.60;100.00;101180.03;5013585;28;20033;-75
2022/04/26 04:35:34;;;;;;;24.63;11.77;;;;;;;1.67;100.00;101169.97;5024201;28;20510;-75
2022/04/26 04:37:59;;;;;;;25.00;12.40;;;;;;;1.72;100.00;101172.31;5022516;28;20335;-75
2022/04/26 04:40:25;;;;;;;29.00;14.53;;;;;;;1.89;100.00;101174.75;5010840;28;20800;-75
2022/04/26 04:42:50;;;;;;;27.00;13.73;;;;;;;1.96;100.00;101185.75;5010369;28;20581;-75
2022/04/26 04:45:16;;;;;;;26.33;13.97;;;;;;;1.98;100.00;101194.41;5022894;28;20034;-75
2022/04/26 04:47:41;;;;;;;28.05;12.93;;;;;;;2.00;100.00;101195.16;5028307;28;20021;-75
2022/04/26 04:50:07;;;;;;;24.53;12.23;;;;;;;2.03;100.00;101201.06;5028219;28;20198;-74
2022/04/26 04:52:32;;;;;;;20.13;10.32;;;;;;;2.15;100.00;101199.44;5023910;28;20084;-75
2022/04/26 04:54:57;;;;;;;21.53;11.00;;;;;;;2.22;100.00;101198.09;5024503;28;20048;-75
2022/04/26 04:57:24;;;;;;;24.60;12.83;;;;;;;2.38;100.00;101205.88;5027192;28;20552;-75
2022/04/26 04:59:50;;;;;;;25.92;10.65;;;;;;;2.47;100.00;101202.66;5010652;28;20048;-75
2022/04/26 05:02:15;;;;;;;45.15;20.65;;;;;;;2.78;100.00;101213.84;5027256;28;20025;-74
2022/04/26 05:04:42;;;;;;;26.83;13.83;;;;;;;3.34;100.00;101237.38;5028426;28;20091;-75
2022/04/26 05:07:08;;;;;;;36.92;17.55;;;;;;;4.56;100.00;101259.66;5028587;28;20049;-75
2022/04/26 05:09:34;;;;;;;;;;;;;;;5.84;100.00;101256.25;5027867;28;20041;-74
2022/04/26 05:11:59;;;;;;;;;;;;;;;7.10;100.00;101250.63;5028570;28;19917;-74
2022/04/26 05:14:24;;;;;;;12.97;7.97;;;;;;;8.12;100.00;101225.03;5028678;28;19912;-75
2022/04/26 05:16:50;;;;;;;17.97;10.87;;;;;;;9.08;100.00;101172.94;5027277;28;20025;-74
2022/04/26 05:19:15;;;;;;;16.53;9.67;;;;;;;9.58;100.00;101093.72;5027090;28;20112;-75
2022/04/26 05:21:40;;;;;;;18.53;11.47;;;;;;;9.94;100.00;101043.94;5026405;28;20052;-75
2022/04/26 05:26:50;;;;;;;16.95;9.77;;;;;;;11.90;93.60;100891.06;5028283;28;20065;-75
2022/04/26 05:29:15;;;;;;;17.37;10.43;;;;;;;11.96;85.96;100815.47;5026693;28;20049;-75
2022/04/26 05:31:40;;;;;;;18.87;12.37;;;;;;;10.18;90.53;100819.22;5018573;28;20132;-75
2022/04/26 05:34:06;;;;;;;17.57;10.73;;;;;;;10.70;96.01;100963.38;5028375;28;20030;-74
2022/04/26 05:36:33;;;;;;;15.18;10.57;;;;;;;12.12;89.82;100943.91;5010597;28;20113;-75
2022/04/26 05:38:59;;;;;;;20.70;10.60;;;;;;;12.79;80.73;100822.25;5026322;28;20063;-75
2022/04/26 05:41:26;;;;;;;15.13;9.98;;;;;;;13.46;75.38;100781.44;5025953;28;20030;-75
2022/04/26 05:43:52;;;;;;;16.83;10.65;;;;;;;13.88;71.83;100763.94;5009215;28;20026;-74
2022/04/26 05:46:17;;;;;;;18.33;11.90;;;;;;;13.55;70.83;100724.03;5026559;28;20041;-73
2022/04/26 05:48:43;;;;;;;18.00;11.20;;;;;;;14.11;70.02;100777.28;5026253;28;20029;-72
2022/04/26 05:51:08;;;;;;;18.47;11.67;;;;;;;13.98;70.82;100810.16;5034479;28;20040;-73
2022/04/26 05:53:35;;;;;;;17.65;11.07;;;;;;;14.70;68.58;100811.34;5027833;28;20029;-72
2022/04/26 05:56:00;;;;;;;;;;;;;;;15.07;66.55;100782.63;5019878;28;20052;-73
2022/04/26 05:58:25;;;;;;;;;;;;;;;15.52;65.05;100791.31;5028229;28;20317;-72
2022/04/26 06:00:51;;;;;;;21.63;10.90;;;;;;;14.88;64.30;100708.81;5027194;28;20692;-73
2022/04/26 06:03:17;;;;;;;17.48;11.10;;;;;;;15.19;64.24;100757.75;5018053;28;20024;-73
2022/04/26 06:05:42;;;;;;;13.77;9.90;;;;;;;14.83;63.04;100671.75;5026163;28;20044;-73
2022/04/26 06:08:09;;;;;;;14.85;10.27;;;;;;;15.07;63.07;100728.84;5027295;28;20021;-73
2022/04/26 06:10:38;;;;;;;18.13;10.95;;;;;;;14.47;62.61;100628.78;5027487;28;20494;-73
2022/04/26 06:13:04;;;;;;;11.88;9.20;;;;;;;14.39;63.17;100685.31;5018184;28;20033;-73
2022/04/26 06:15:29;;;;;;;15.27;9.40;;;;;;;14.90;60.00;100639.56;5026281;28;20036;-73
2022/04/26 06:17:54;;;;;;;17.00;8.13;;;;;;;14.62;59.27;100594.66;5027295;28;20482;-73
2022/04/26 06:20:23;;;;;;;14.67;7.43;;;;;;;14.74;59.55;100663.00;5027000;28;20507;-73
2022/04/26 06:22:48;;;;;;;10.23;7.18;;;;;;;15.35;57.42;100642.81;5026903;28;20032;-73
2022/04/26 06:25:14;;;;;;;8.10;6.45;;;;;;;15.15;54.90;100497.50;5027243;28;20037;-73
2022/04/26 06:27:39;;;;;;;11.30;6.07;;;;;;;15.50;53.33;100482.13;5026564;28;20022;-73
2022/04/26 06:30:05;;;;;;;8.47;5.17;;;;;;;16.07;52.04;100544.66;5015476;28;20056;-73
2022/04/26 06:32:31;;;;;;;10.38;6.30;;;;;;;15.82;51.38;100455.53;5025114;28;20033;-73
2022/04/26 06:34:56;;;;;;;7.90;5.60;;;;;;;15.79;50.76;100418.28;5023965;28;20087;-73
2022/04/26 06:37:23;;;;;;;7.33;5.30;;;;;;;15.91;49.93;100443.53;5026731;28;20017;-74
2022/04/26 06:39:49;;;;;;;6.78;4.93;;;;;;;15.22;49.09;100255.47;5028996;28;20410;-73
2022/04/26 06:42:14;;;;;;;6.07;4.50;;;;;;;14.85;49.77;100311.44;5026974;28;20208;-76
2022/04/26 06:44:40;;;;;;;7.00;4.90;;;;;;;15.41;48.49;100335.38;5024329;28;20121;-76
2022/04/26 06:47:06;;;;;;;8.77;4.33;;;;;;;15.16;47.33;100254.44;5010274;28;20049;-75
2022/04/26 06:49:31;;;;;;;6.87;4.00;;;;;;;15.04;46.75;100202.31;5023211;28;20127;-73
2022/04/26 06:51:56;;;;;;;8.20;4.43;;;;;;;15.44;47.15;100315.31;5026880;28;20021;-75
2022/04/26 06:54:21;;;;;;;7.47;5.10;;;;;;;15.27;47.12;100263.78;5026720;28;20041;-72
2022/04/26 06:56:47;;;;;;;8.77;4.40;;;;;;;14.38;49.86;100353.34;5026310;28;20037;-71
2022/04/26 06:59:13;;;;;;;8.83;4.47;;;;;;;15.13;48.48;100392.81;5026581;28;20029;-72
2022/04/26 07:01:39;;;;;;;12.63;4.38;;;;;;;14.76;48.84;100359.16;5006422;28;20026;-75
2022/04/26 07:04:04;;;;;;;7.32;4.75;;;;;;;14.50;48.87;100316.84;5042064;28;20037;-75
2022/04/26 07:06:30;;;;;;;8.40;4.30;;;;;;;13.54;50.01;100241.47;5027186;28;20032;-74
2022/04/26 07:08:56;;;;;;;7.77;4.43;;;;;;;13.44;51.09;100315.03;5019831;28;20387;-78
2022/04/26 07:11:21;;;;;;;8.85;4.45;;;;;;;13.60;52.19;100423.91;5013062;28;20368;-77
2022/04/26 07:13:48;;;;;;;13.43;4.68;;;;;;;12.85;52.91;100323.19;5030974;28;20036;-75
2022/04/26 07:16:14;;;;;;;12.15;4.55;;;;;;;12.93;52.92;100368.66;5029291;28;20036;-75
2022/04/26 07:18:39;;;;;;;7.37;4.90;;;;;;;12.17;53.31;100259.09;5028984;28;20411;-77
2022/04/26 07:21:05;;;;;;;8.77;4.67;;;;;;;11.99;54.20;100306.81;5029149;28;20045;-77
2022/04/26 07:23:30;;;;;;;6.30;4.43;;;;;;;11.80;55.73;100399.88;5013350;28;20147;-76
2022/04/26 07:25:55;;;;;;;10.43;4.10;;;;;;;12.38;54.04;100407.44;5029210;28;20026;-77
2022/04/26 07:28:22;;;;;;;7.23;3.60;;;;;;;13.26;53.08;100516.47;5012399;28;20059;-77
2022/04/26 07:30:48;;;;;;;4.60;3.22;;;;;;;13.37;49.84;100343.63;5030534;28;20025;-77
2022/04/26 07:35:57;;;;;;;6.30;3.65;;;;;;;13.39;50.17;100371.06;5029266;28;20132;-74
2022/04/26 07:38:22;;;;;;;3.03;2.40;;;;;;;13.25;47.31;100165.47;5026665;28;20049;-75
2022/04/26 07:40:48;;;;;;;4.00;2.00;;;;;;;13.92;45.83;100202.50;5028481;28;20039;-76
2022/04/26 07:43:13;;;;;;;3.67;2.13;;;;;;;14.82;43.90;100256.25;5027092;28;20466;-75
2022/04/26 07:45:41;;;;;;;2.10;1.90;;;;;;;14.11;43.68;100093.56;5013729;28;20118;-75
2022/04/26 07:48:07;;;;;;;3.78;2.83;;;;;;;14.40;43.72;100185.59;5024994;28;20537;-75
2022/04/26 07:50:34;;;;;;;5.25;2.28;;;;;;;15.33;42.63;100258.38;5026230;28;20044;-76
2022/04/26 07:53:01;;;;;;;3.97;2.40;;;;;;;15.28;42.71;100219.72;5027425;28;20025;-74
2022/04/26 07:55:27;;;;;;;7.22;3.30;;;;;;;15.38;43.37;100284.66;5026102;28;20033;-75
2022/04/26 07:57:52;;;;;;;;;;;;;;;16.00;44.35;100445.00;5021479;28;20040;-75
2022/04/26 08:00:18;;;;;;;;;;;;;;;15.92;46.27;100538.59;5026835;28;19917;-75
2022/04/26 08:02:43;;;;;;;12.67;4.77;;;;;;;15.75;48.58;100594.66;5026898;28;19955;-74
2022/04/26 08:05:08;;;;;;;5.03;3.50;;;;;;;15.47;45.01;100337.25;5011093;28;20037;-74
2022/04/26 08:07:39;;;;;;;5.70;3.43;;;;;;;15.98;45.88;100495.53;5023486;28;20454;-75
2022/04/26 08:10:07;;;;;;;2.60;2.03;;;;;;;16.23;42.22;100284.88;5035985;28;20034;-76
2022/04/26 08:12:33;;;;;;;5.13;3.40;;;;;;;16.01;41.62;100201.66;5027594;28;20433;-75
2022/04/26 08:14:58;;;;;;;3.33;2.67;;;;;;;16.49;40.82;100245.44;5027701;28;20087;-75
2022/04/26 08:17:23;;;;;;;4.77;2.80;;;;;;;16.73;40.48;100274.34;5027621;28;20049;-75
2022/04/26 08:19:49;;;;;;;5.00;3.37;;;;;;;17.15;40.35;100282.84;5018338;28;20037;-75
2022/04/26 08:22:14;;;;;;;4.27;2.90;;;;;;;17.36;39.61;100267.38;5034973;28;20036;-75
2022/04/26 08:27:25;;;;;;;3.00;2.55;;;;;;;17.12;39.02;100215.88;5023244;28;20044;-76
2022/04/26 08:29:54;;;;;;;3.00;2.28;;;;;;;17.66;38.10;100241.38;5027496;28;20068;-75
2022/04/26 08:32:22;;;;;;;3.85;2.65;;;;;;;18.21;38.55;100326.28;5020429;28;20429;-76
2022/04/26 08:34:47;;;;;;;3.88;2.88;;;;;;;17.97;37.26;100165.91;5027336;28;20026;-72
2022/04/26 08:37:13;;;;;;;5.80;2.78;;;;;;;17.76;38.31;100192.28;5009281;28;20045;-75
2022/04/26 08:39:38;;;;;;;3.27;2.67;;;;;;;17.92;38.28;100247.59;5024452;28;20064;-74
2022/04/26 08:42:06;;;;;;;6.07;2.83;;;;;;;17.90;38.14;100195.69;5024410;28;20080;-74
2022/04/26 08:44:31;;;;;;;7.00;3.53;;;;;;;18.00;38.49;100268.91;5025086;28;20541;-74
2022/04/26 08:52:27;;;;;;;3.93;2.60;;;;;;;18.69;37.58;100344.50;5024447;28;20038;-74
2022/04/26 08:54:52;;;;;;;6.68;3.45;;;;;;;18.98;36.60;100291.50;5024992;28;20274;-74
2022/04/26 08:57:18;;;;;;;4.93;2.90;;;;;;;18.14;37.16;100172.34;5024561;28;20593;-74
2022/04/26 08:59:51;;;;;;;3.60;2.70;;;;;;;18.62;37.35;100236.41;5028323;28;20356;-74
2022/04/26 09:02:21;;;;;;;6.78;3.03;;;;;;;18.51;38.02;100246.09;5027206;28;20033;-74
2022/04/26 09:04:49;;;;;;;7.93;2.92;;;;;;;18.22;37.32;100214.47;5027252;28;20038;-74
2022/04/26 09:07:36;;;;;;;4.68;2.75;;;;;;;19.06;36.42;100271.41;5007383;28;20549;-74
2022/04/26 09:10:16;;;;;;;4.38;2.50;;;;;;;18.95;35.83;100190.00;5020631;28;20855;-74
2022/04/26 09:13:07;;;;;;;3.50;3.20;;;;;;;18.85;36.05;100181.63;5028212;28;20037;-74
2022/04/26 09:15:38;;;;;;;4.13;2.92;;;;;;;19.36;35.87;100268.69;5028293;28;20116;-74
2022/04/26 09:18:26;;;;;;;4.82;2.78;;;;;;;19.81;35.75;100349.47;5020709;28;20171;-75
2022/04/26 09:21:05;;;;;;;2.85;2.55;;;;;;;19.92;34.61;100225.91;5018546;28;20057;-74
2022/04/26 09:23:32;;;;;;;3.50;3.08;;;;;;;19.84;34.43;100191.06;5026932;28;20040;-75
2022/04/26 09:26:07;;;;;;;;;;;;;;;19.82;36.59;100365.47;5027097;28;20049;-75
2022/04/26 09:28:34;;;;;;;3.60;3.05;;;;;;;19.42;35.42;100201.97;5028148;28;19913;-75
2022/04/26 09:30:59;;;;;;;2.97;2.65;;;;;;;18.89;34.46;99990.78;5026817;28;20028;-75
2022/04/26 09:33:38;;;;;;;2.97;2.50;;;;;;;19.35;35.88;100261.63;5028093;28;20038;-75
2022/04/26 09:36:11;;;;;;;3.00;2.70;;;;;;;19.85;35.59;100322.72;5026718;28;20038;-75
2022/04/26 09:38:38;;;;;;;5.07;3.65;;;;;;;19.33;33.99;100020.16;5023457;28;20132;-75
2022/04/26 09:41:11;;;;;;;3.85;3.03;;;;;;;19.79;35.29;100237.81;5026357;28;20083;-75
2022/04/26 09:43:38;;;;;;;3.05;2.75;;;;;;;19.83;34.92;100206.50;5026792;28;20103;-74
2022/04/26 09:46:04;;;;;;;5.55;2.72;;;;;;;20.14;34.58;100267.59;5028070;28;20030;-75
2022/04/26 09:48:38;;;;;;;3.15;2.65;;;;;;;20.27;33.82;100220.44;5026972;28;20037;-75
2022/04/26 09:51:05;;;;;;;3.80;2.95;;;;;;;20.62;34.09;100279.19;5018690;28;20069;-75
2022/04/26 09:53:32;;;;;;;5.72;3.20;;;;;;;20.17;32.89;100076.59;5008526;28;20033;-75
2022/04/26 09:56:00;;;;;;;4.03;2.85;;;;;;;18.98;34.65;99977.72;5009773;28;20031;-75
2022/04/26 09:58:27;;;;;;;4.70;2.88;;;;;;;19.88;32.56;100056.78;5027365;28;20090;-75
2022/04/26 10:00:54;;;;;;;5.60;3.20;;;;;;;19.19;34.10;99984.41;5009681;28;20689;-74
2022/04/26 10:03:30;;;;;;;5.75;3.53;;;;;;;19.92;34.57;100258.41;5026459;28;20024;-74
2022/04/26 10:06:02;;;;;;;6.20;3.50;;;;;;;20.70;34.49;100351.22;5025967;28;20747;-75
2022/04/26 10:08:30;;;;;;;6.50;3.90;;;;;;;20.55;34.25;100264.91;5025126;28;20038;-73
2022/04/26 10:10:56;;;;;;;7.07;3.72;;;;;;;20.34;35.26;100337.69;5024245;28;20033;-75
2022/04/26 10:13:31;;;;;;;;;;;;;;;20.89;35.41;100404.28;5027544;28;20033;-74
2022/04/26 10:16:04;;;;;;;6.53;3.37;;;;;;;21.66;33.47;100405.81;5027296;28;19917;-74
2022/04/26 10:18:45;;;;;;;7.50;3.95;;;;;;;21.69;33.07;100348.28;5026029;28;20045;-74
2022/04/26 10:21:22;;;;;;;5.05;3.75;;;;;;;21.75;32.49;100263.06;5020289;28;20562;-75
2022/04/26 10:23:50;;;;;;;6.63;3.90;;;;;;;21.43;32.44;100214.75;5027237;28;20556;-75
2022/04/26 10:28:57;;;;;;;4.25;3.10;;;;;;;21.46;31.54;100097.50;5026243;28;20104;-74
2022/04/26 10:31:35;;;;;;;4.15;3.22;;;;;;;21.91;32.58;100304.88;5025743;28;20125;-75
2022/04/26 10:34:24;;;;;;;5.22;3.45;;;;;;;20.99;32.54;100068.00;5019071;28;20041;-76
2022/04/26 10:36:54;;;;;;;5.68;3.30;;;;;;;19.64;33.72;99916.00;4998447;28;20128;-75
2022/04/26 10:39:25;;;;;;;4.45;4.00;;;;;;;18.70;35.12;99873.78;5019989;28;20439;-75
2022/04/26 10:41:52;;;;;;;6.28;4.45;;;;;;;18.29;35.61;99908.00;5026259;28;20048;-75
2022/04/26 10:44:17;;;;;;;8.65;4.05;;;;;;;19.91;34.57;100165.50;5020241;28;20509;-74
2022/04/26 10:46:50;;;;;;;5.87;3.87;;;;;;;20.41;33.59;100158.63;5023552;28;20034;-75
2022/04/26 10:49:25;;;;;;;6.70;4.47;;;;;;;20.83;33.74;100250.59;5008892;28;20065;-75
2022/04/26 10:52:01;;;;;;;7.15;4.45;;;;;;;21.67;34.27;100475.38;5025585;28;20478;-75
2022/04/26 10:54:45;;;;;;;6.00;4.00;;;;;;;20.95;33.19;100169.13;5025118;28;20045;-74
2022/04/26 10:57:10;;;;;;;5.70;4.90;;;;;;;18.92;34.61;99882.16;5032112;28;20045;-75
2022/04/26 10:59:40;;;;;;;5.70;5.00;;;;;;;19.99;33.74;100042.38;5021726;28;20018;-76
2022/04/26 11:02:11;;;;;;;7.28;4.07;;;;;;;20.52;33.84;100181.34;5026382;28;20287;-75
2022/04/26 11:04:37;;;;;;;5.30;3.70;;;;;;;21.27;33.16;100302.41;5025175;28;20083;-75
2022/04/26 11:07:12;;;;;;;5.90;4.20;;;;;;;19.26;35.28;99987.00;5026768;28;20029;-74
2022/04/26 11:09:44;;;;;;;6.65;4.45;;;;;;;18.72;35.64;99962.78;5026091;28;20103;-75
2022/04/26 11:12:09;;;;;;;8.10;4.47;;;;;;;18.14;36.71;99915.72;5025917;28;20029;-75
2022/04/26 11:14:40;;;;;;;7.47;5.33;;;;;;;17.58;38.04;99960.94;5025107;28;20030;-75
2022/04/26 11:17:06;;;;;;;7.55;5.20;;;;;;;16.76;38.39;99850.69;5025258;28;20069;-75
2022/04/26 11:19:37;;;;;;;6.15;4.43;;;;;;;18.04;38.38;100162.06;5025984;28;20111;-74
2022/04/26 11:22:06;;;;;;;10.82;6.13;;;;;;;18.81;36.28;100136.34;5016330;28;20045;-74
2022/04/26 11:30:05;;;;;;;8.57;5.85;;;;;;;20.03;33.80;100171.69;5026063;28;20037;-75
2022/04/26 11:32:42;;;;;;;8.27;5.40;;;;;;;20.75;33.57;100251.00;5008190;28;20398;-75
2022/04/26 11:35:09;;;;;;;7.65;4.75;;;;;;;22.18;32.63;100456.44;5025961;28;20037;-76
2022/04/26 11:37:49;;;;;;;9.73;4.80;;;;;;;22.73;31.81;100429.31;5024990;28;20083;-76
2022/04/26 11:40:29;;;;;;;5.50;4.70;;;;;;;22.30;31.94;100311.19;5014646;28;20042;-76
2022/04/26 11:42:57;;;;;;;7.93;5.50;;;;;;;21.69;31.97;100141.81;5023448;28;20125;-75
2022/04/26 11:45:28;;;;;;;7.85;4.68;;;;;;;20.71;34.57;100204.53;5024743;28;20032;-75
2022/04/26 11:47:55;;;;;;;6.45;4.55;;;;;;;21.26;34.83;100363.22;5024671;28;20043;-76
2022/04/26 11:50:25;;;;;;;5.72;4.47;;;;;;;20.42;33.66;100058.09;5024518;28;20024;-75
2022/04/26 11:52:56;;;;;;;6.53;5.15;;;;;;;18.61;34.89;99798.69;5024362;28;20053;-75
2022/04/26 11:55:27;;;;;;;7.05;5.10;;;;;;;20.13;35.50;100254.28;5008020;28;20045;-76
2022/04/26 11:58:04;;;;;;;5.63;5.03;;;;;;;17.22;37.24;99781.91;5025721;28;20112;-73
2022/04/26 12:00:30;;;;;;;9.27;5.72;;;;;;;17.69;37.61;99970.16;5023078;28;20029;-76
2022/04/26 12:02:55;;;;;;;9.90;5.18;;;;;;;17.89;37.01;99986.13;5023492;28;20363;-76
2022/04/26 12:05:22;;;;;;;6.47;4.73;;;;;;;17.73;37.99;100030.75;5021049;28;20065;-75
2022/04/26 12:07:49;;;;;;;7.75;5.22;;;;;;;17.80;37.08;99998.28;5001629;28;20037;-74
2022/04/26 12:10:32;;;;;;;8.55;5.00;;;;;;;17.77;38.20;100064.34;5025498;28;20038;-75
2022/04/26 12:13:03;;;;;;;6.10;4.68;;;;;;;17.65;38.35;100050.78;5015874;28;20513;-74
2022/04/26 12:15:40;;;;;;;6.65;5.07;;;;;;;17.34;38.55;100005.06;5025757;28;20435;-75
2022/04/26 12:18:15;;;;;;;7.15;5.28;;;;;;;16.23;39.29;99852.09;5022839;28;20033;-74
2022/04/26 12:21:02;;;;;;;12.23;5.25;;;;;;;15.30;41.28;99886.88;5024031;28;20689;-74
2022/04/26 12:23:28;;;;;;;11.98;4.72;;;;;;;16.73;43.53;100403.72;5027203;28;20120;-76
2022/04/26 12:25:53;;;;;;;11.10;4.93;;;;;;;17.76;39.61;100307.53;5027180;28;20036;-74
2022/04/26 12:28:19;;;;;;;7.43;4.10;;;;;;;19.15;40.34;100616.38;5012480;28;20038;-75
2022/04/26 12:30:44;;;;;;;7.50;4.87;;;;;;;20.39;38.36;100637.91;5014071;28;20113;-75
2022/04/26 12:33:10;;;;;;;6.97;5.00;;;;;;;20.81;36.62;100543.00;5027025;28;20045;-75
2022/04/26 12:35:35;;;;;;;8.80;5.53;;;;;;;19.20;36.07;100164.66;5020256;28;20025;-75
2022/04/26 12:38:05;;;;;;;5.30;4.20;;;;;;;20.22;36.24;100427.13;5020025;28;20045;-75
2022/04/26 12:40:30;;;;;;;7.93;5.65;;;;;;;20.32;35.02;100301.88;5025200;28;20018;-76
2022/04/26 12:42:57;;;;;;;10.20;5.50;;;;;;;20.14;34.85;100245.91;5027823;28;20021;-76
2022/04/26 12:45:23;;;;;;;;;;;;;;;19.42;36.31;100264.25;5028614;28;20037;-75
2022/04/26 12:50:51;;;;;;;8.35;5.53;;;;;;;19.50;36.06;100185.38;5028640;28;20095;-76
2022/04/26 12:53:24;;;;;;;;;;;;;;;18.71;35.79;100010.63;5030361;28;20021;-74
2022/04/26 12:55:50;;;;;;;8.25;4.25;;;;;;;17.95;37.40;99995.19;5028844;28;20366;-77
2022/04/26 12:58:17;;;;;;;6.45;4.60;;;;;;;18.06;37.41;100073.53;5030287;28;20100;-76
2022/04/26 13:00:43;;;;;;;9.25;4.78;;;;;;;17.82;37.65;100024.00;5030291;28;20049;-76
2022/04/26 13:03:10;;;;;;;10.00;5.00;;;;;;;16.98;38.99;99991.31;5029883;28;20565;-76
2022/04/26 13:05:41;;;;;;;6.15;4.57;;;;;;;17.90;39.45;100276.69;5028567;28;20049;-76
2022/04/26 13:08:07;;;;;;;7.68;4.30;;;;;;;19.04;37.70;100389.88;5028486;28;20128;-76
2022/04/26 13:10:33;;;;;;;5.20;3.85;;;;;;;20.18;35.72;100431.38;5030265;28;20026;-76
2022/04/26 13:12:59;;;;;;;8.63;4.68;;;;;;;20.87;34.71;100430.81;5012506;28;20033;-76
2022/04/26 13:15:27;;;;;;;6.55;4.25;;;;;;;21.46;33.57;100434.22;5030221;28;20387;-76
2022/04/26 13:17:53;;;;;;;6.28;4.93;;;;;;;20.51;35.32;100362.22;5028649;28;20045;-76
2022/04/26 13:20:18;;;;;;;;;;;;;;;21.11;33.73;100363.75;5025413;28;20026;-76
2022/04/26 13:22:44;;;;;;;6.10;4.68;;;;;;;21.86;34.23;100522.19;5027544;28;19919;-76
2022/04/26 13:25:09;;;;;;;4.60;4.10;;;;;;;20.51;34.13;100196.81;5012519;28;20087;-76
2022/04/26 13:27:36;;;;;;;5.20;4.30;;;;;;;21.02;35.45;100447.41;5029960;28;20087;-76
2022/04/26 13:30:03;;;;;;;5.28;4.70;;;;;;;21.48;34.43;100442.97;5028965;28;20022;-74
2022/04/26 13:32:30;;;;;;;7.43;4.75;;;;;;;21.67;33.28;100374.84;5029210;28;20037;-77
2022/04/26 13:34:56;;;;;;;;;;;;;;;20.80;34.64;100295.31;5029479;28;20049;-75
2022/04/26 13:37:21;;;;;;;5.65;4.22;;;;;;;20.98;35.33;100402.84;5030671;28;19917;-76
2022/04/26 13:39:48;;;;;;;8.60;4.07;;;;;;;21.04;34.71;100352.19;5019783;28;20033;-74
2022/04/26 13:42:14;;;;;;;6.32;4.07;;;;;;;20.50;35.42;100289.22;5031320;28;20047;-75
2022/04/26 13:44:40;;;;;;;9.63;5.95;;;;;;;20.80;35.88;100392.16;5029833;28;20021;-77
2022/04/26 13:47:06;;;;;;;5.28;4.30;;;;;;;20.14;35.44;100182.78;5032215;28;20055;-76
2022/04/26 13:49:34;;;;;;;7.95;4.88;;;;;;;18.86;37.61;100148.13;5009176;28;20061;-76
2022/04/26 13:52:03;;;;;;;5.70;4.30;;;;;;;18.79;36.97;100071.69;5029156;28;20044;-76
2022/04/26 13:54:29;;;;;;;6.85;4.07;;;;;;;18.46;38.16;100127.03;5011332;28;20021;-76
2022/04/26 13:56:55;;;;;;;7.03;4.40;;;;;;;18.35;38.49;100152.97;5028041;28;20516;-76
2022/04/26 13:59:22;;;;;;;;;;;;;;;18.19;38.37;100090.63;5028148;28;20281;-75
2022/04/26 14:01:49;;;;;;;5.72;4.15;;;;;;;18.15;39.20;100176.72;5027535;28;19990;-76
2022/04/26 14:04:14;;;;;;;;;;;;;;;17.34;39.12;99994.25;5028603;28;20025;-75
2022/04/26 14:06:39;;;;;;;5.75;4.15;;;;;;;17.69;39.22;100100.53;5027293;28;19913;-76
2022/04/26 14:09:05;;;;;;;6.77;4.83;;;;;;;17.88;39.07;100166.19;5027563;28;20128;-76
2022/04/26 14:11:31;;;;;;;7.50;4.60;;;;;;;18.86;38.07;100331.19;5026961;28;20033;-75
2022/04/26 14:22:09;;;;;;;8.77;4.00;;;;;;;20.02;38.42;100525.00;5022223;28;20068;-75
2022/04/26 14:24:34;;;;;;;6.77;4.20;;;;;;;20.34;36.95;100458.84;5036722;28;20060;-76
2022/04/26 14:27:01;;;;;;;7.30;4.67;;;;;;;19.00;37.56;100183.91;5036608;28;20069;-76
2022/04/26 14:29:26;;;;;;;7.80;4.50;;;;;;;18.42;38.38;100143.94;5011091;28;20027;-75
2022/04/26 14:31:52;;;;;;;6.63;4.80;;;;;;;18.02;38.57;100072.34;5026821;28;20041;-74
2022/04/26 14:34:17;;;;;;;6.90;4.80;;;;;;;18.05;38.63;100108.88;5010303;28;20268;-76
2022/04/26 14:36:43;;;;;;;7.13;5.13;;;;;;;17.69;39.67;100111.34;5027592;28;20034;-76
2022/04/26 14:39:08;;;;;;;6.80;5.18;;;;;;;17.03;40.41;100055.38;5026178;28;20037;-76
2022/04/26 14:41:34;;;;;;;7.30;5.37;;;;;;;16.82;41.11;100068.19;5025633;28;20037;-76
2022/04/26 14:44:00;;;;;;;8.05;4.60;;;;;;;16.07;41.99;100030.34;5026090;28;20025;-76
2022/04/26 14:46:28;;;;;;;8.13;4.60;;;;;;;16.69;41.33;100141.03;5018054;28;20043;-76
2022/04/26 14:48:54;;;;;;;7.43;5.20;;;;;;;16.40;41.29;100070.53;5026098;28;20022;-76
2022/04/26 14:51:19;;;;;;;6.38;4.75;;;;;;;16.03;41.63;100037.19;5009579;28;20087;-76
2022/04/26 14:53:45;;;;;;;14.80;5.67;;;;;;;15.30;42.76;99956.78;5027213;28;20387;-75
2022/04/26 14:56:10;;;;;;;8.87;4.97;;;;;;;14.95;43.74;100013.53;5017039;28;20057;-74
2022/04/26 14:58:36;;;;;;;6.80;5.07;;;;;;;15.56;43.94;100204.19;5026099;28;20021;-76
2022/04/26 15:01:01;;;;;;;8.13;5.57;;;;;;;15.12;43.47;100056.94;5026959;28;20132;-75
2022/04/26 15:03:27;;;;;;;7.93;5.60;;;;;;;15.61;43.20;100153.25;5026088;28;20076;-73
2022/04/26 15:05:54;;;;;;;8.75;5.28;;;;;;;16.43;43.59;100398.78;5025959;28;20033;-76
2022/04/26 15:11:04;;;;;;;7.43;4.93;;;;;;;17.70;40.90;100436.97;5040859;28;20033;-76
2022/04/26 15:18:57;;;;;;;7.38;4.65;;;;;;;17.57;39.66;100242.69;5025375;28;20586;-75
2022/04/26 15:21:23;;;;;;;5.30;4.13;;;;;;;17.86;40.72;100394.31;5026284;28;20101;-75
2022/04/26 15:23:49;;;;;;;8.55;4.63;;;;;;;17.70;41.21;100428.88;5025156;28;20037;-76
2022/04/26 15:26:15;;;;;;;8.10;4.53;;;;;;;18.33;40.27;100463.16;5026381;28;20025;-75
2022/04/26 15:28:41;;;;;;;7.63;4.43;;;;;;;17.83;40.41;100359.66;5033531;28;20126;-76
2022/04/26 15:31:06;;;;;;;;;;;;;;;18.31;40.05;100448.22;5025098;28;20068;-73
2022/04/26 15:33:32;;;;;;;;;;;;;;;18.13;40.68;100427.34;5026932;28;20448;-74
2022/04/26 15:35:57;;;;;;;5.77;3.97;;;;;;;18.25;40.20;100449.06;5026084;28;20359;-74
2022/04/26 15:38:27;;;;;;;7.33;3.93;;;;;;;18.12;39.47;100342.78;5025258;28;20116;-76
2022/04/26 15:40:53;;;;;;;7.80;3.97;;;;;;;18.70;38.57;100424.53;5007889;28;20092;-75
2022/04/26 15:43:18;;;;;;;7.68;3.30;;;;;;;18.95;38.13;100433.44;5019680;28;20029;-75
2022/04/26 15:45:45;;;;;;;7.73;4.30;;;;;;;18.38;38.57;100304.88;5026160;28;20116;-76
2022/04/26 15:48:11;;;;;;;4.35;3.95;;;;;;;17.68;38.99;100196.09;5026654;28;20028;-74